createdAt,value
2023-01-18T00:00:35.020Z,2.10
2023-01-18T00:03:04.801Z,2.17
2023-01-18T00:05:34.707Z,2.13
2023-01-18T00:08:03.089Z,2.80
2023-01-18T00:10:31.785Z,2.80
2023-01-18T00:13:00.398Z,2.23
2023-01-18T00:15:28.885Z,2.50
2023-01-18T00:17:57.142Z,2.30
2023-01-18T00:20:28.229Z,2.30
2023-01-18T00:22:57.027Z,2.87
2023-01-18T00:25:25.861Z,2.50
2023-01-18T00:27:55.866Z,2.63
2023-01-18T00:30:25.818Z,2.80
2023-01-18T00:32:56.912Z,3.00
2023-01-18T00:35:27.406Z,2.87
2023-01-18T00:37:55.801Z,2.83
2023-01-18T00:40:28.464Z,2.73
2023-01-18T00:43:14.038Z,2.80
2023-01-18T00:45:43.081Z,2.60
2023-01-18T00:48:11.391Z,2.30
2023-01-18T00:50:41.111Z,2.50
2023-01-18T00:53:09.535Z,2.73
2023-01-18T00:55:37.953Z,3.10
2023-01-18T00:58:06.354Z,3.10
2023-01-18T01:00:35.178Z,2.87
2023-01-18T01:03:03.616Z,3.23
2023-01-18T01:05:49.330Z,3.10
2023-01-18T01:08:19.141Z,2.70
2023-01-18T01:10:49.131Z,2.77
2023-01-18T01:13:37.686Z,2.60
2023-01-18T01:16:24.668Z,3.10
2023-01-18T01:19:10.828Z,2.80
2023-01-18T01:21:57.334Z,3.10
2023-01-18T01:24:44.811Z,2.80
2023-01-18T01:27:13.952Z,3.00
2023-01-18T01:29:42.424Z,2.43
2023-01-18T01:32:11.059Z,2.77
2023-01-18T01:34:39.271Z,2.73
2023-01-18T01:37:07.503Z,2.73
2023-01-18T01:39:37.043Z,3.17
2023-01-18T01:42:05.482Z,3.00
2023-01-18T01:44:55.447Z,2.80
2023-01-18T01:47:40.326Z,2.80
2023-01-18T01:50:18.377Z,2.27
2023-01-18T01:52:48.781Z,2.33
2023-01-18T01:55:23.086Z,2.60
2023-01-18T01:57:56.580Z,2.40
2023-01-18T02:00:25.547Z,2.07
2023-01-18T02:02:57.498Z,2.13
2023-01-18T02:05:27.010Z,1.83
2023-01-18T02:07:56.935Z,2.30
2023-01-18T02:10:26.966Z,2.00
2023-01-18T02:12:56.115Z,2.10
2023-01-18T02:15:32.256Z,1.70
2023-01-18T02:18:14.154Z,1.60
2023-01-18T02:21:10.486Z,1.60
2023-01-18T02:24:18.084Z,1.50
2023-01-18T02:27:06.141Z,1.30
2023-01-18T02:29:49.958Z,1.60
2023-01-18T02:32:25.675Z,1.80
2023-01-18T02:35:00.842Z,1.80
2023-01-18T02:37:42.708Z,1.57
2023-01-18T02:40:21.079Z,1.70
2023-01-18T02:43:08.216Z,1.70
2023-01-18T02:46:00.082Z,1.80
2023-01-18T02:48:36.163Z,1.40
2023-01-18T02:51:05.129Z,1.80
2023-01-18T02:53:38.909Z,1.97
2023-01-18T02:56:12.215Z,2.47
2023-01-18T02:58:44.357Z,2.13
2023-01-18T03:01:19.521Z,2.20
2023-01-18T03:03:51.092Z,2.53
2023-01-18T03:06:21.294Z,2.47
2023-01-18T03:08:53.397Z,3.27
2023-01-18T03:11:28.878Z,2.40
2023-01-18T03:14:05.457Z,2.90
2023-01-18T03:16:58.454Z,3.17
2023-01-18T03:19:59.932Z,2.67
2023-01-18T03:22:43.776Z,2.90
2023-01-18T03:25:14.420Z,2.60
2023-01-18T03:28:03.035Z,2.73
2023-01-18T03:30:51.745Z,2.80
2023-01-18T03:33:44.805Z,2.30
2023-01-18T03:36:19.038Z,2.40
2023-01-18T03:38:51.360Z,2.10
2023-01-18T03:41:20.878Z,2.23
2023-01-18T03:43:51.244Z,1.93
2023-01-18T03:46:20.960Z,2.03
2023-01-18T03:48:50.842Z,2.03
2023-01-18T03:51:25.938Z,2.07
2023-01-18T03:54:01.056Z,2.17
2023-01-18T03:56:35.703Z,2.40
2023-01-18T03:59:06.217Z,2.30
2023-01-18T04:01:34.905Z,2.20
2023-01-18T04:04:04.692Z,1.97
2023-01-18T04:06:33.977Z,2.10
2023-01-18T04:09:02.332Z,1.97
2023-01-18T04:11:31.146Z,1.90
2023-01-18T04:13:59.523Z,1.83
2023-01-18T04:16:27.933Z,1.77
2023-01-18T04:18:56.294Z,1.53
2023-01-18T04:21:26.016Z,1.77
2023-01-18T04:23:54.504Z,1.60
2023-01-18T04:26:22.767Z,1.73
2023-01-18T04:28:51.086Z,1.70
2023-01-18T04:31:19.718Z,2.17
2023-01-18T04:33:51.601Z,1.70
2023-01-18T04:36:20.320Z,1.70
2023-01-18T04:38:53.810Z,1.70
2023-01-18T04:41:23.018Z,2.00
2023-01-18T04:43:51.212Z,1.83
2023-01-18T04:46:19.558Z,1.40
2023-01-18T04:48:51.716Z,2.07
2023-01-18T04:51:21.408Z,2.23
2023-01-18T04:53:51.989Z,2.27
2023-01-18T04:56:20.557Z,2.43
2023-01-18T04:58:48.786Z,2.17
2023-01-18T05:01:17.304Z,2.10
2023-01-18T05:03:46.051Z,2.73
2023-01-18T05:06:16.345Z,2.43
2023-01-18T05:08:44.800Z,2.80
2023-01-18T05:11:16.570Z,3.70
2023-01-18T05:13:45.545Z,2.77
2023-01-18T05:16:16.237Z,2.73
2023-01-18T05:18:44.767Z,3.00
2023-01-18T05:21:13.698Z,3.10
2023-01-18T05:23:42.172Z,4.80
2023-01-18T05:26:16.104Z,4.97
2023-01-18T05:28:44.811Z,5.63
2023-01-18T05:31:14.794Z,6.40
2023-01-18T05:33:43.308Z,6.33
2023-01-18T05:36:11.891Z,7.20
2023-01-18T05:38:40.280Z,7.27
2023-01-18T05:41:09.050Z,7.33
2023-01-18T05:43:38.870Z,7.20
2023-01-18T05:46:07.646Z,7.60
2023-01-18T05:48:36.123Z,7.60
2023-01-18T05:51:09.324Z,7.20
2023-01-18T05:53:38.168Z,7.50
2023-01-18T05:56:08.219Z,7.57
2023-01-18T05:58:38.424Z,7.43
2023-01-18T06:01:07.703Z,7.50
2023-01-18T06:03:36.534Z,7.80
2023-01-18T06:06:04.916Z,6.70
2023-01-18T06:08:33.953Z,6.07
2023-01-18T06:11:02.772Z,6.80
2023-01-18T06:13:32.737Z,6.70
2023-01-18T06:16:03.055Z,7.30
2023-01-18T06:18:33.978Z,7.00
2023-01-18T06:21:03.660Z,7.27
2023-01-18T06:23:32.699Z,6.97
2023-01-18T06:26:01.073Z,7.53
2023-01-18T06:28:30.843Z,7.53
2023-01-18T06:31:00.461Z,7.20
2023-01-18T06:33:30.141Z,6.87
2023-01-18T06:35:58.680Z,7.13
2023-01-18T06:38:27.089Z,7.17
2023-01-18T06:40:55.799Z,6.77
2023-01-18T06:43:24.342Z,6.83
2023-01-18T06:45:56.707Z,6.83
2023-01-18T06:48:26.514Z,7.27
2023-01-18T06:50:58.035Z,7.37
2023-01-18T06:53:27.142Z,6.90
2023-01-18T06:55:56.945Z,6.57
2023-01-18T06:58:25.862Z,7.30
2023-01-18T07:00:56.024Z,8.07
2023-01-18T07:03:24.748Z,7.87
2023-01-18T07:05:56.095Z,8.43
2023-01-18T07:08:24.857Z,8.90
2023-01-18T07:10:54.069Z,7.07
2023-01-18T07:13:23.594Z,7.77
2023-01-18T07:15:56.607Z,7.50
2023-01-18T07:18:25.084Z,7.90
2023-01-18T07:21:02.706Z,8.03
2023-01-18T07:23:31.887Z,8.37
2023-01-18T07:26:02.218Z,8.00
2023-01-18T07:28:31.181Z,7.60
2023-01-18T07:31:00.408Z,7.33
2023-01-18T07:33:29.322Z,7.77
2023-01-18T07:35:58.886Z,8.50
2023-01-18T07:38:29.205Z,8.57
2023-01-18T07:41:03.104Z,8.90
2023-01-18T07:43:32.172Z,8.73
2023-01-18T07:46:01.163Z,9.53
2023-01-18T07:48:30.091Z,8.73
2023-01-18T07:50:59.738Z,8.97
2023-01-18T07:53:30.498Z,8.57
2023-01-18T07:56:01.564Z,9.33
2023-01-18T07:58:30.130Z,9.23
2023-01-18T08:01:03.950Z,8.57
2023-01-18T08:03:32.204Z,9.63
2023-01-18T08:06:00.966Z,8.10
2023-01-18T08:08:31.708Z,9.73
2023-01-18T08:11:01.141Z,8.87
2023-01-18T08:13:29.911Z,9.20
2023-01-18T08:16:02.231Z,8.47
2023-01-18T08:18:30.472Z,8.13
2023-01-18T08:20:58.909Z,8.63
2023-01-18T08:23:27.693Z,7.90
2023-01-18T08:26:01.183Z,8.17
2023-01-18T08:28:29.585Z,8.53
2023-01-18T08:31:08.141Z,7.50
2023-01-18T08:33:41.768Z,8.37
2023-01-18T08:36:14.780Z,8.13
2023-01-18T08:38:43.265Z,8.25
2023-01-18T08:41:12.881Z,7.80
2023-01-18T08:43:41.307Z,8.17
2023-01-18T08:46:09.718Z,7.10
2023-01-18T08:48:38.049Z,7.33
2023-01-18T08:51:06.548Z,6.80
2023-01-18T08:53:35.002Z,7.77
2023-01-18T08:56:06.322Z,7.43
2023-01-18T08:58:35.924Z,7.23
2023-01-18T09:01:06.739Z,7.70
2023-01-18T09:03:35.231Z,7.40
2023-01-18T09:06:04.376Z,7.37
2023-01-18T09:08:32.758Z,7.23
2023-01-18T09:11:03.537Z,6.77
2023-01-18T09:13:32.076Z,6.90
2023-01-18T09:16:03.129Z,6.60
2023-01-18T09:18:31.777Z,6.60
2023-01-18T09:21:00.591Z,6.63
2023-01-18T09:23:29.089Z,7.33
2023-01-18T09:26:05.486Z,6.57
2023-01-18T09:28:34.033Z,6.60
2023-01-18T09:31:04.994Z,7.03
2023-01-18T09:33:37.973Z,6.27
2023-01-18T09:36:09.824Z,6.77
2023-01-18T09:38:39.286Z,7.20
2023-01-18T09:41:10.179Z,6.67
2023-01-18T09:43:44.459Z,6.47
2023-01-18T09:46:19.737Z,6.60
2023-01-18T09:48:54.280Z,6.53
2023-01-18T09:51:26.355Z,5.87
2023-01-18T09:54:06.109Z,6.30
2023-01-18T09:56:43.020Z,4.90
2023-01-18T09:59:21.016Z,4.23
2023-01-18T10:01:55.003Z,5.87
2023-01-18T10:04:30.763Z,4.97
2023-01-18T10:07:02.463Z,6.07
2023-01-18T10:09:34.570Z,6.35
2023-01-18T10:12:05.707Z,6.13
2023-01-18T10:14:44.271Z,6.10
2023-01-18T10:17:18.931Z,5.70
2023-01-18T10:19:47.168Z,5.20
2023-01-18T10:22:22.876Z,5.47
2023-01-18T10:25:00.546Z,5.30
2023-01-18T10:27:49.550Z,5.23
2023-01-18T10:30:51.696Z,5.07
2023-01-18T10:33:24.528Z,5.30
2023-01-18T10:35:56.194Z,4.27
2023-01-18T10:38:28.739Z,4.20
2023-01-18T10:40:59.319Z,4.33
2023-01-18T10:43:28.928Z,4.33
2023-01-18T10:45:57.840Z,4.40
2023-01-18T10:48:31.143Z,4.10
2023-01-18T10:51:01.982Z,3.87
2023-01-18T10:53:33.162Z,4.63
2023-01-18T10:56:05.078Z,4.67
2023-01-18T10:58:38.718Z,3.93
2023-01-18T11:01:08.882Z,4.17
2023-01-18T11:03:47.586Z,3.70
2023-01-18T11:06:17.325Z,4.10
2023-01-18T11:08:45.689Z,3.70
2023-01-18T11:11:20.461Z,4.00
2023-01-18T11:13:50.652Z,3.70
2023-01-18T11:16:21.110Z,3.93
2023-01-18T11:19:05.295Z,4.47
2023-01-18T11:21:45.627Z,4.27
2023-01-18T11:24:17.627Z,4.07
2023-01-18T11:26:54.774Z,4.33
2023-01-18T11:29:27.632Z,4.83
2023-01-18T11:32:01.908Z,5.30
2023-01-18T11:34:35.004Z,5.67
2023-01-18T11:37:04.385Z,5.17
2023-01-18T11:39:34.629Z,8.07
2023-01-18T11:42:17.790Z,7.30
2023-01-18T11:44:49.396Z,5.90
2023-01-18T11:47:22.912Z,5.43
2023-01-18T11:50:05.654Z,5.20
2023-01-18T11:52:43.512Z,4.70
2023-01-18T11:55:23.713Z,5.07
2023-01-18T11:57:54.077Z,4.67
2023-01-18T12:00:28.216Z,4.67
2023-01-18T12:03:24.599Z,5.30
2023-01-18T12:05:58.711Z,5.93
2023-01-18T12:08:50.033Z,6.88
2023-01-18T12:11:43.053Z,6.30
2023-01-18T12:14:25.258Z,5.87
2023-01-18T12:17:08.777Z,4.77
2023-01-18T12:19:48.516Z,5.10
2023-01-18T12:22:51.532Z,4.10
2023-01-18T12:25:43.010Z,3.07
2023-01-18T12:28:23.585Z,4.00
2023-01-18T12:31:03.357Z,4.30
2023-01-18T12:33:48.595Z,4.30
2023-01-18T12:36:33.480Z,4.70
2023-01-18T12:39:10.501Z,3.70
2023-01-18T12:41:46.255Z,10.20
2023-01-18T12:44:43.729Z,3.57
2023-01-18T12:47:32.778Z,3.67
2023-01-18T12:50:03.468Z,2.20
2023-01-18T12:52:36.962Z,3.20
2023-01-18T12:55:09.274Z,2.03
2023-01-18T12:57:37.868Z,2.10
2023-01-18T13:00:10.448Z,1.40
2023-01-18T13:02:44.417Z,2.27
2023-01-18T13:05:19.116Z,1.37
2023-01-18T13:07:50.884Z,1.50
2023-01-18T13:10:24.451Z,1.93
2023-01-18T13:12:54.401Z,1.50
2023-01-18T13:15:34.657Z,1.60
2023-01-18T13:18:09.790Z,1.53
2023-01-18T13:20:49.691Z,1.40
2023-01-18T13:23:30.559Z,1.93
2023-01-18T13:26:08.288Z,1.10
2023-01-18T13:28:37.074Z,1.50
2023-01-18T13:31:06.443Z,1.60
2023-01-18T13:33:37.018Z,1.80
2023-01-18T13:36:08.225Z,1.40
2023-01-18T13:38:42.295Z,1.50
2023-01-18T13:41:14.389Z,1.50
2023-01-18T13:44:26.889Z,2.20
2023-01-18T13:47:00.382Z,1.43
2023-01-18T13:49:38.712Z,1.60
2023-01-18T13:52:31.531Z,2.40
2023-01-18T13:55:03.596Z,1.90
2023-01-18T13:57:35.419Z,1.67
2023-01-18T14:00:05.122Z,1.70
2023-01-18T14:02:42.327Z,1.93
2023-01-18T14:05:20.264Z,2.00
2023-01-18T14:07:51.619Z,2.00
2023-01-18T14:10:27.711Z,1.83
2023-01-18T14:12:59.132Z,2.07
2023-01-18T14:15:31.927Z,1.90
2023-01-18T14:18:00.585Z,1.90
2023-01-18T14:20:49.648Z,2.07
2023-01-18T14:23:31.270Z,2.10
2023-01-18T14:26:03.811Z,2.00
2023-01-18T14:28:38.485Z,2.00
2023-01-18T14:31:13.173Z,1.90
2023-01-18T14:33:44.053Z,9.00
2023-01-18T14:36:21.220Z,2.23
2023-01-18T14:39:06.835Z,2.00
2023-01-18T14:41:35.659Z,2.17
2023-01-18T14:44:05.669Z,2.10
2023-01-18T14:46:33.939Z,2.07
2023-01-18T14:49:02.889Z,2.10
2023-01-18T14:51:32.068Z,2.43
2023-01-18T14:54:04.776Z,2.60
2023-01-18T14:56:43.098Z,2.03
2023-01-18T14:59:22.284Z,2.50
2023-01-18T15:01:55.287Z,2.13
2023-01-18T15:04:25.660Z,2.90
2023-01-18T15:06:58.446Z,2.60
2023-01-18T15:09:28.348Z,2.20
2023-01-18T15:11:59.396Z,1.97
2023-01-18T15:14:32.629Z,2.13
2023-01-18T15:17:02.916Z,2.07
2023-01-18T15:19:36.118Z,2.13
2023-01-18T15:22:07.606Z,2.10
2023-01-18T15:24:40.979Z,2.37
2023-01-18T15:27:14.468Z,2.40
2023-01-18T15:29:49.126Z,3.27
2023-01-18T15:32:21.157Z,2.50
2023-01-18T15:34:51.991Z,2.50
2023-01-18T15:37:26.062Z,2.57
2023-01-18T15:40:01.912Z,2.30
2023-01-18T15:42:34.444Z,2.93
2023-01-18T15:45:05.145Z,2.63
2023-01-18T15:47:38.222Z,2.40
2023-01-18T15:50:17.422Z,2.80
2023-01-18T15:52:47.890Z,2.33
2023-01-18T15:55:23.773Z,2.17
2023-01-18T15:58:01.792Z,2.20
2023-01-18T16:00:37.999Z,2.10
2023-01-18T16:03:06.929Z,2.30
2023-01-18T16:05:35.361Z,2.73
2023-01-18T16:08:21.973Z,1.67
2023-01-18T16:10:53.323Z,2.40
2023-01-18T16:13:32.886Z,2.90
2023-01-18T16:16:21.270Z,2.13
2023-01-18T16:18:53.274Z,2.50
2023-01-18T16:21:33.989Z,2.40
2023-01-18T16:24:03.026Z,2.70
2023-01-18T16:26:32.164Z,2.27
2023-01-18T16:29:08.247Z,1.73
2023-01-18T16:31:41.463Z,2.37
2023-01-18T16:34:21.070Z,2.60
2023-01-18T16:36:49.937Z,3.40
2023-01-18T16:39:18.389Z,3.10
2023-01-18T16:41:53.139Z,2.37
2023-01-18T16:44:22.649Z,2.77
2023-01-18T16:46:53.972Z,3.50
2023-01-18T16:49:22.300Z,3.07
2023-01-18T16:51:51.457Z,3.40
2023-01-18T16:54:20.089Z,3.47
2023-01-18T16:56:48.560Z,5.00
2023-01-18T16:59:18.819Z,5.83
2023-01-18T17:01:47.532Z,7.47
2023-01-18T17:04:17.634Z,9.33
2023-01-18T17:06:46.286Z,8.50
2023-01-18T17:09:23.505Z,10.23
2023-01-18T17:11:52.087Z,10.43
2023-01-18T17:14:20.920Z,9.80
2023-01-18T17:16:50.057Z,9.50
2023-01-18T17:19:22.026Z,11.77
2023-01-18T17:21:51.334Z,8.77
2023-01-18T17:24:21.087Z,7.28
2023-01-18T17:26:49.831Z,6.68
2023-01-18T17:29:21.322Z,6.53
2023-01-18T17:31:53.449Z,6.63
2023-01-18T17:34:28.091Z,7.63
2023-01-18T17:36:58.410Z,6.93
2023-01-18T17:39:43.656Z,7.10
2023-01-18T17:42:22.374Z,8.07
2023-01-18T17:45:03.011Z,8.50
2023-01-18T17:47:32.227Z,8.53
2023-01-18T17:50:04.122Z,8.47
2023-01-18T17:52:32.458Z,7.37
2023-01-18T17:55:00.877Z,5.30
2023-01-18T17:57:29.842Z,4.03
2023-01-18T17:59:58.289Z,3.63
2023-01-18T18:02:27.760Z,3.83
2023-01-18T18:04:56.178Z,4.60
2023-01-18T18:07:25.834Z,6.00
2023-01-18T18:09:58.580Z,4.27
2023-01-18T18:12:27.297Z,3.13
2023-01-18T18:14:56.031Z,4.00
2023-01-18T18:17:25.193Z,4.50
2023-01-18T18:19:53.643Z,3.57
2023-01-18T18:22:22.723Z,5.03
2023-01-18T18:24:52.795Z,4.00
2023-01-18T18:27:23.210Z,3.77
2023-01-18T18:29:53.176Z,3.63
2023-01-18T18:32:21.517Z,4.20
2023-01-18T18:34:49.890Z,3.90
2023-01-18T18:37:19.924Z,3.47
2023-01-18T18:39:48.341Z,3.47
2023-01-18T18:42:18.394Z,3.45
2023-01-18T18:44:46.807Z,3.70
2023-01-18T18:47:15.475Z,2.93
2023-01-18T18:49:43.700Z,3.10
2023-01-18T18:52:12.689Z,2.90
2023-01-18T18:54:41.017Z,3.27
2023-01-18T18:57:09.584Z,2.60
2023-01-18T18:59:39.350Z,2.60
2023-01-18T19:02:08.130Z,2.77
2023-01-18T19:04:36.610Z,3.13
2023-01-18T19:07:05.273Z,2.80
2023-01-18T19:09:34.288Z,3.67
2023-01-18T19:12:03.479Z,2.70
2023-01-18T19:14:32.192Z,2.60
2023-01-18T19:17:01.674Z,2.70
2023-01-18T19:19:30.108Z,2.87
2023-01-18T19:21:58.667Z,2.93
2023-01-18T19:24:31.718Z,2.70
2023-01-18T19:27:00.113Z,2.93
2023-01-18T19:29:28.663Z,3.53
2023-01-18T19:31:57.322Z,3.40
2023-01-18T19:34:27.289Z,4.83
2023-01-18T19:36:55.738Z,3.30
2023-01-18T19:39:23.999Z,4.80
2023-01-18T19:41:53.013Z,4.03
2023-01-18T19:44:21.651Z,3.80
2023-01-18T19:46:50.777Z,2.90
2023-01-18T19:49:20.225Z,2.17
2023-01-18T19:51:50.183Z,2.57
2023-01-18T19:54:18.712Z,2.80
2023-01-18T19:56:47.555Z,4.83
2023-01-18T19:59:15.928Z,2.90
2023-01-18T20:01:45.097Z,2.90
2023-01-18T20:04:14.539Z,2.63
2023-01-18T20:06:46.964Z,3.43
2023-01-18T20:09:20.311Z,3.47
2023-01-18T20:11:51.122Z,3.43
2023-01-18T20:14:20.031Z,2.80
2023-01-18T20:16:48.957Z,2.93
2023-01-18T20:19:19.313Z,3.10
2023-01-18T20:21:48.117Z,1.97
2023-01-18T20:24:18.114Z,2.30
2023-01-18T20:26:46.691Z,2.23
2023-01-18T20:29:15.365Z,2.37
2023-01-18T20:31:49.560Z,2.20
2023-01-18T20:34:18.551Z,3.37
2023-01-18T20:36:49.943Z,5.03
2023-01-18T20:39:20.653Z,3.47
2023-01-18T20:41:50.133Z,2.90
2023-01-18T20:44:18.772Z,2.57
2023-01-18T20:46:47.575Z,2.80
2023-01-18T20:49:17.900Z,2.93
2023-01-18T20:51:47.812Z,3.90
2023-01-18T20:54:16.410Z,2.13
2023-01-18T20:56:46.165Z,2.40
2023-01-18T20:59:14.890Z,2.30
2023-01-18T21:01:43.498Z,2.37
2023-01-18T21:04:12.267Z,2.17
2023-01-18T21:06:44.869Z,1.60
2023-01-18T21:09:13.648Z,2.23
2023-01-18T21:11:42.845Z,1.77
2023-01-18T21:14:12.869Z,1.97
2023-01-18T21:16:41.464Z,1.93
2023-01-18T21:19:11.149Z,2.30
2023-01-18T21:21:40.653Z,1.80
2023-01-18T21:24:09.318Z,2.07
2023-01-18T21:26:37.929Z,1.83
2023-01-18T21:29:06.547Z,1.50
2023-01-18T21:31:37.934Z,1.63
2023-01-18T21:34:07.606Z,1.93
2023-01-18T21:36:36.096Z,2.53
2023-01-18T21:39:04.590Z,2.30
2023-01-18T21:41:50.653Z,1.80
2023-01-18T21:44:36.662Z,1.90
2023-01-18T21:47:06.358Z,2.40
2023-01-18T21:50:15.963Z,2.43
2023-01-18T21:52:58.557Z,2.40
2023-01-18T21:55:26.941Z,1.87
2023-01-18T21:58:12.723Z,2.53
2023-01-18T22:00:41.708Z,2.43
2023-01-18T22:03:13.089Z,2.17
2023-01-18T22:05:41.601Z,1.73
2023-01-18T22:08:10.555Z,2.10
2023-01-18T22:10:39.322Z,2.27
2023-01-18T22:13:07.722Z,1.83
2023-01-18T22:15:35.995Z,1.93
2023-01-18T22:18:04.604Z,2.07
2023-01-18T22:20:34.329Z,2.10
2023-01-18T22:23:02.754Z,1.67
2023-01-18T22:25:31.298Z,1.93
2023-01-18T22:27:59.914Z,1.77
2023-01-18T22:30:28.566Z,1.70
2023-01-18T22:32:56.934Z,1.97
2023-01-18T22:35:25.245Z,1.77
2023-01-18T22:37:55.026Z,1.93
2023-01-18T22:40:23.702Z,2.17
2023-01-18T22:42:52.118Z,1.97
2023-01-18T22:45:20.590Z,2.17
2023-01-18T22:47:48.912Z,2.20
2023-01-18T22:50:18.045Z,1.97
2023-01-18T22:52:46.304Z,2.30
2023-01-18T22:55:16.420Z,1.53
2023-01-18T22:57:44.672Z,2.37
2023-01-18T23:00:13.901Z,2.60
2023-01-18T23:02:42.315Z,2.00
2023-01-18T23:05:10.954Z,2.00
2023-01-18T23:07:39.624Z,2.30
2023-01-18T23:10:08.201Z,2.40
2023-01-18T23:12:37.791Z,2.30
2023-01-18T23:15:24.205Z,2.60
2023-01-18T23:17:52.596Z,2.77
2023-01-18T23:20:23.349Z,1.80
2023-01-18T23:22:51.749Z,2.80
2023-01-18T23:25:20.163Z,2.00
2023-01-18T23:27:49.680Z,1.90
2023-01-18T23:30:18.414Z,2.10
2023-01-18T23:32:46.709Z,2.03
2023-01-18T23:35:14.924Z,1.43
2023-01-18T23:37:43.332Z,2.00
2023-01-18T23:40:30.351Z,2.30
2023-01-18T23:43:17.269Z,2.00
2023-01-18T23:46:02.938Z,2.13
2023-01-18T23:48:48.964Z,1.80
2023-01-18T23:51:34.767Z,2.40
2023-01-18T23:54:16.651Z,2.63
2023-01-18T23:56:45.601Z,2.00
2023-01-18T23:59:15.194Z,2.00
